Time;durP1;ratioP1;P1;durP2;ratioP2;P2;SDS_P1;SDS_P2;PMS_P1;PMS_P2;Temp;Humidity;BMP_temperature;BMP_pressure;BME280_temperature;BME280_humidity;BME280_pressure;Samples;Min_cycle;Max_cycle;Signal;HPM_P1;HPM_P2
2022/04/19 00:01:42;;;;;;;5.47;4.93;;;;;;;;;;6222168;23;20289;-86
2022/04/19 00:04:11;;;;;;;6.73;1.97;;;;;;;;;;6221509;23;20170;-87
2022/04/19 00:06:39;;;;;;;3.30;2.60;;;;;;;;;;6221156;23;20194;-86
2022/04/19 00:09:08;;;;;;;0.67;0.67;;;;;;;;;;6221759;23;20236;-86
2022/04/19 00:11:36;;;;;;;2.83;2.73;;;;;;;;;;6248568;23;20233;-86
2022/04/19 00:14:07;;;;;;;2.87;2.77;;;;;;;;;;6220799;23;20177;-87
2022/04/19 00:16:38;;;;;;;3.07;2.87;;;;;;;;;;6221699;23;20180;-86
2022/04/19 00:19:07;;;;;;;1.40;1.40;;;;;;;;;;6221864;23;20317;-87
2022/04/19 00:21:35;;;;;;;2.97;1.73;;;;;;;;;;6221902;23;20256;-86
2022/04/19 00:24:04;;;;;;;3.93;3.73;;;;;;;;;;6222071;23;20201;-87
2022/04/19 00:26:33;;;;;;;1.90;1.90;;;;;;;;;;6247882;23;20284;-86
2022/04/19 00:29:01;;;;;;;2.83;2.70;;;;;;;;;;6248541;23;20178;-87
2022/04/19 00:31:30;;;;;;;4.67;4.37;;;;;;;;;;6221785;23;20177;-87
2022/04/19 00:33:59;;;;;;;3.00;2.80;;;;;;;;;;6248448;23;20170;-86
2022/04/19 00:36:28;;;;;;;5.37;4.83;;;;;;;;;;6221015;23;20181;-87
2022/04/19 00:38:57;;;;;;;8.17;5.07;;;;;;;;;;6222288;23;20185;-86
2022/04/19 00:41:26;;;;;;;1.50;1.50;;;;;;;;;;6221642;23;20177;-87
2022/04/19 00:43:54;;;;;;;4.83;3.43;;;;;;;;;;6222399;23;20196;-87
2022/04/19 00:46:24;;;;;;;4.60;2.97;;;;;;;;;;6222027;23;20258;-86
2022/04/19 00:48:53;;;;;;;15.37;7.87;;;;;;;;;;6247855;23;20174;-87
2022/04/19 00:51:23;;;;;;;3.63;3.33;;;;;;;;;;6223298;23;20251;-86
2022/04/19 00:53:52;;;;;;;2.27;1.93;;;;;;;;;;6222227;23;20179;-87
2022/04/19 00:56:20;;;;;;;1.33;1.33;;;;;;;;;;6222375;23;20264;-87
2022/04/19 00:58:49;;;;;;;2.27;2.17;;;;;;;;;;6222760;23;20173;-87
2022/04/19 01:01:17;;;;;;;2.07;1.87;;;;;;;;;;6249201;23;20253;-86
2022/04/19 01:03:46;;;;;;;1.80;1.70;;;;;;;;;;6222526;23;20194;-87
2022/04/19 01:06:14;;;;;;;2.50;2.23;;;;;;;;;;6222213;23;20229;-86
2022/04/19 01:08:44;;;;;;;2.83;2.63;;;;;;;;;;6222968;23;20174;-86
2022/04/19 01:14:02;;;;;;;1.90;1.80;;;;;;;;;;6222018;23;20205;-86
2022/04/19 01:16:31;;;;;;;1.47;1.47;;;;;;;;;;6221658;23;20174;-86
2022/04/19 01:19:01;;;;;;;2.27;2.10;;;;;;;;;;6222251;23;20231;-85
2022/04/19 01:21:43;;;;;;;1.97;1.67;;;;;;;;;;6221342;23;20177;-86
2022/04/19 01:24:14;;;;;;;1.67;1.67;;;;;;;;;;6248404;23;20277;-86
2022/04/19 01:26:42;;;;;;;2.00;1.90;;;;;;;;;;6222285;23;20256;-85
2022/04/19 01:29:11;;;;;;;2.90;2.70;;;;;;;;;;6222012;23;20184;-86
2022/04/19 01:31:40;;;;;;;6.30;4.17;;;;;;;;;;6221986;23;20189;-86
2022/04/19 01:34:09;;;;;;;2.00;1.93;;;;;;;;;;6222279;23;20280;-86
2022/04/19 01:36:38;;;;;;;5.57;4.27;;;;;;;;;;6221655;23;20177;-86
2022/04/19 01:39:09;;;;;;;3.37;1.90;;;;;;;;;;6249939;23;20166;-85
2022/04/19 01:41:38;;;;;;;3.90;3.60;;;;;;;;;;6222185;23;20174;-85
2022/04/19 01:44:07;;;;;;;2.10;2.10;;;;;;;;;;6222565;23;20186;-85
2022/04/19 01:46:35;;;;;;;2.03;1.93;;;;;;;;;;6248816;23;20192;-86
2022/04/19 01:49:04;;;;;;;1.40;1.40;;;;;;;;;;6249299;23;20169;-86
2022/04/19 01:51:33;;;;;;;0.60;0.60;;;;;;;;;;6222574;23;20203;-86
2022/04/19 01:54:02;;;;;;;1.53;1.53;;;;;;;;;;6222669;23;20253;-86
2022/04/19 01:56:32;;;;;;;0.80;0.80;;;;;;;;;;6221826;23;20237;-86
2022/04/19 01:59:00;;;;;;;1.27;1.27;;;;;;;;;;6222602;23;20177;-86
2022/04/19 02:01:29;;;;;;;3.73;3.10;;;;;;;;;;6222036;23;20173;-86
2022/04/19 02:03:57;;;;;;;7.13;6.17;;;;;;;;;;6222070;23;20247;-86
2022/04/19 02:06:26;;;;;;;4.50;4.13;;;;;;;;;;6248600;23;20268;-86
2022/04/19 02:08:55;;;;;;;3.70;3.40;;;;;;;;;;6222412;23;20177;-86
2022/04/19 02:11:24;;;;;;;9.03;7.63;;;;;;;;;;6222465;23;20178;-86
2022/04/19 02:13:54;;;;;;;0.80;0.80;;;;;;;;;;6222214;23;20169;-85
2022/04/19 02:16:23;;;;;;;12.87;8.77;;;;;;;;;;6222514;23;20268;-86
2022/04/19 02:18:52;;;;;;;3.50;3.20;;;;;;;;;;6222063;23;20173;-86
2022/04/19 02:21:21;;;;;;;6.90;5.43;;;;;;;;;;6222187;23;20185;-86
2022/04/19 02:23:49;;;;;;;5.00;3.67;;;;;;;;;;6221599;23;20189;-85
2022/04/19 02:26:24;;;;;;;1.03;1.03;;;;;;;;;;6222141;23;20210;-86
2022/04/19 02:28:52;;;;;;;0.83;0.83;;;;;;;;;;6221445;23;20173;-85
2022/04/19 02:31:22;;;;;;;0.80;0.80;;;;;;;;;;6221735;23;20202;-86
2022/04/19 02:33:51;;;;;;;1.97;1.87;;;;;;;;;;6221984;23;20174;-86
2022/04/19 02:36:19;;;;;;;4.30;3.93;;;;;;;;;;6222037;23;20260;-86
2022/04/19 02:38:48;;;;;;;0.63;0.63;;;;;;;;;;6221913;23;20177;-86
2022/04/19 02:41:17;;;;;;;1.60;1.57;;;;;;;;;;6222198;23;20200;-86
2022/04/19 02:43:45;;;;;;;0.73;0.73;;;;;;;;;;6221294;23;20207;-86
2022/04/19 02:46:14;;;;;;;4.50;3.97;;;;;;;;;;6222188;23;20173;-86
2022/04/19 02:48:44;;;;;;;0.60;0.60;;;;;;;;;;6222130;23;20174;-86
2022/04/19 02:51:12;;;;;;;2.40;2.30;;;;;;;;;;6222104;23;20245;-87
2022/04/19 02:53:43;;;;;;;1.40;1.40;;;;;;;;;;6222404;23;20166;-86
2022/04/19 02:56:11;;;;;;;1.63;1.63;;;;;;;;;;6222304;23;20205;-86
2022/04/19 02:58:39;;;;;;;2.63;2.20;;;;;;;;;;6223865;23;20205;-86
2022/04/19 03:01:08;;;;;;;0.50;0.50;;;;;;;;;;6224053;23;20200;-86
2022/04/19 03:03:36;;;;;;;1.90;1.80;;;;;;;;;;6223036;23;20193;-86
2022/04/19 03:06:07;;;;;;;1.37;1.37;;;;;;;;;;6224015;23;20283;-86
2022/04/19 03:08:35;;;;;;;3.20;3.00;;;;;;;;;;6223171;23;20180;-86
2022/04/19 03:11:04;;;;;;;0.70;0.70;;;;;;;;;;6250453;23;20172;-86
2022/04/19 03:13:32;;;;;;;3.20;3.10;;;;;;;;;;6223333;23;20200;-86
2022/04/19 03:16:01;;;;;;;2.07;2.07;;;;;;;;;;6223872;23;20173;-86
2022/04/19 03:18:30;;;;;;;1.23;1.23;;;;;;;;;;6249973;23;20166;-86
2022/04/19 03:20:59;;;;;;;3.33;3.23;;;;;;;;;;6223947;23;20200;-86
2022/04/19 03:29:01;;;;;;;1.57;1.57;;;;;;;;;;6223071;23;20204;-86
2022/04/19 03:31:31;;;;;;;1.13;1.13;;;;;;;;;;6223398;23;20176;-86
2022/04/19 03:34:00;;;;;;;0.67;0.67;;;;;;;;;;6223730;23;20170;-86
2022/04/19 03:36:29;;;;;;;0.60;0.60;;;;;;;;;;6223762;23;20181;-86
2022/04/19 03:38:59;;;;;;;3.83;3.50;;;;;;;;;;6223438;23;20173;-86
2022/04/19 03:41:28;;;;;;;6.03;1.73;;;;;;;;;;6223363;23;20174;-86
2022/04/19 03:43:57;;;;;;;1.00;1.00;;;;;;;;;;6223071;23;20189;-86
2022/04/19 03:46:26;;;;;;;0.80;0.80;;;;;;;;;;6223356;23;20186;-86
2022/04/19 03:48:56;;;;;;;0.60;0.60;;;;;;;;;;6223194;23;20187;-86
2022/04/19 03:51:25;;;;;;;1.20;1.20;;;;;;;;;;6223668;23;20181;-86
2022/04/19 03:53:53;;;;;;;0.60;0.60;;;;;;;;;;6223807;23;20174;-86
2022/04/19 03:56:23;;;;;;;0.60;0.60;;;;;;;;;;6223387;23;20197;-86
2022/04/19 03:58:52;;;;;;;1.10;1.10;;;;;;;;;;6223544;23;20174;-86
2022/04/19 04:01:20;;;;;;;0.60;0.60;;;;;;;;;;6250147;23;20173;-86
2022/04/19 04:03:49;;;;;;;1.27;1.27;;;;;;;;;;6222782;23;20200;-86
2022/04/19 04:06:19;;;;;;;1.80;1.80;;;;;;;;;;6249210;23;20232;-87
2022/04/19 04:08:48;;;;;;;0.90;0.90;;;;;;;;;;6222793;23;20235;-86
2022/04/19 04:11:17;;;;;;;1.80;1.77;;;;;;;;;;6222813;23;20177;-87
2022/04/19 04:13:47;;;;;;;0.80;0.80;;;;;;;;;;6223168;23;20269;-86
2022/04/19 04:16:16;;;;;;;1.87;1.87;;;;;;;;;;6223143;23;20261;-86
2022/04/19 04:18:44;;;;;;;0.50;0.50;;;;;;;;;;6250055;23;20174;-86
2022/04/19 04:21:13;;;;;;;1.83;1.83;;;;;;;;;;6223176;23;20181;-86
2022/04/19 04:23:42;;;;;;;0.80;0.80;;;;;;;;;;6250185;23;20174;-86
2022/04/19 04:26:10;;;;;;;0.80;0.80;;;;;;;;;;6224146;23;20204;-86
2022/04/19 04:28:39;;;;;;;0.90;0.90;;;;;;;;;;6223383;23;20280;-85
2022/04/19 04:31:09;;;;;;;1.70;1.67;;;;;;;;;;6222809;23;20181;-85
2022/04/19 04:33:37;;;;;;;1.63;1.63;;;;;;;;;;6248707;23;20187;-86
2022/04/19 04:36:06;;;;;;;8.00;3.13;;;;;;;;;;6224656;23;20174;-85
2022/04/19 04:38:35;;;;;;;1.23;1.23;;;;;;;;;;6223284;23;20182;-86
2022/04/19 04:41:03;;;;;;;0.60;0.60;;;;;;;;;;6224003;23;20178;-85
2022/04/19 04:43:31;;;;;;;1.20;1.20;;;;;;;;;;6249784;23;20197;-85
2022/04/19 04:51:34;;;;;;;0.60;0.60;;;;;;;;;;6224000;23;20193;-85
2022/04/19 04:54:02;;;;;;;0.70;0.70;;;;;;;;;;6224025;23;20200;-86
2022/04/19 04:56:31;;;;;;;1.10;1.10;;;;;;;;;;6223673;23;20241;-86
2022/04/19 04:58:59;;;;;;;4.90;4.43;;;;;;;;;;6223670;23;20534;-86
2022/04/19 05:01:29;;;;;;;1.13;1.13;;;;;;;;;;6222694;23;20184;-85
2022/04/19 05:03:59;;;;;;;1.67;1.47;;;;;;;;;;6221823;23;20181;-83
2022/04/19 05:06:27;;;;;;;0.70;0.70;;;;;;;;;;6222323;23;20200;-85
2022/04/19 05:08:56;;;;;;;1.63;1.63;;;;;;;;;;6222104;23;20256;-85
2022/04/19 05:11:25;;;;;;;2.13;2.03;;;;;;;;;;6221569;23;20176;-86
2022/04/19 05:13:53;;;;;;;1.70;1.60;;;;;;;;;;6221334;23;20243;-86
2022/04/19 05:16:24;;;;;;;2.37;1.87;;;;;;;;;;6222622;23;20168;-86
2022/04/19 05:18:53;;;;;;;1.83;1.67;;;;;;;;;;6223031;23;20185;-86
2022/04/19 05:21:23;;;;;;;2.13;2.07;;;;;;;;;;6249173;23;20169;-86
2022/04/19 05:23:52;;;;;;;2.13;2.03;;;;;;;;;;6222957;23;20178;-85
2022/04/19 05:26:21;;;;;;;2.63;2.40;;;;;;;;;;6223009;23;20297;-87
2022/04/19 05:28:49;;;;;;;0.60;0.60;;;;;;;;;;6227609;23;20178;-86
2022/04/19 05:31:18;;;;;;;1.73;1.73;;;;;;;;;;6247504;23;20181;-86
2022/04/19 05:33:47;;;;;;;1.03;1.00;;;;;;;;;;6226184;23;20267;-87
2022/04/19 05:36:15;;;;;;;0.70;0.70;;;;;;;;;;6219312;23;20192;-87
2022/04/19 05:38:45;;;;;;;0.90;0.90;;;;;;;;;;6247171;23;20174;-88
2022/04/19 05:41:13;;;;;;;0.60;0.60;;;;;;;;;;6246752;23;20169;-88
2022/04/19 05:43:44;;;;;;;0.60;0.60;;;;;;;;;;6229839;23;20245;-90
2022/04/19 05:46:20;;;;;;;1.87;1.77;;;;;;;;;;6241539;23;20194;-91
2022/04/19 05:49:04;;;;;;;0.57;0.57;;;;;;;;;;6240603;23;20201;-91
2022/04/19 05:51:38;;;;;;;1.13;1.03;;;;;;;;;;6202123;23;20177;-91
2022/04/19 05:54:14;;;;;;;3.57;3.37;;;;;;;;;;6202449;23;20180;-92
2022/04/19 05:56:43;;;;;;;0.83;0.83;;;;;;;;;;6193682;23;20185;-87
2022/04/19 05:59:12;;;;;;;1.53;1.53;;;;;;;;;;6189145;23;20178;-87
2022/04/19 06:07:12;;;;;;;1.63;1.63;;;;;;;;;;6190250;23;20221;-86
2022/04/19 06:09:42;;;;;;;0.60;0.60;;;;;;;;;;6189365;23;20257;-86
2022/04/19 06:12:11;;;;;;;1.37;1.37;;;;;;;;;;6215517;23;20166;-86
2022/04/19 06:14:40;;;;;;;1.23;1.23;;;;;;;;;;6188909;23;20181;-85
2022/04/19 06:17:08;;;;;;;1.50;1.40;;;;;;;;;;6189476;23;20185;-86
2022/04/19 06:19:37;;;;;;;2.10;2.00;;;;;;;;;;6215460;23;20228;-85
2022/04/19 06:22:05;;;;;;;1.97;1.87;;;;;;;;;;6189542;23;20210;-86
2022/04/19 06:24:34;;;;;;;6.13;3.73;;;;;;;;;;6215534;23;20174;-86
2022/04/19 06:27:04;;;;;;;1.27;1.27;;;;;;;;;;6214989;23;20206;-85
2022/04/19 06:29:33;;;;;;;9.83;7.40;;;;;;;;;;6215268;23;20173;-85
2022/04/19 06:32:01;;;;;;;6.60;5.63;;;;;;;;;;6189494;23;20228;-85
2022/04/19 06:34:30;;;;;;;1.27;1.27;;;;;;;;;;6216699;23;20253;-85
2022/04/19 06:36:58;;;;;;;2.40;2.20;;;;;;;;;;6216921;23;20201;-85
2022/04/19 06:39:27;;;;;;;1.00;1.00;;;;;;;;;;6190915;23;20178;-85
2022/04/19 06:41:56;;;;;;;12.00;4.87;;;;;;;;;;6190445;23;20181;-85
2022/04/19 06:44:26;;;;;;;8.50;5.23;;;;;;;;;;6190839;23;20175;-85
2022/04/19 06:46:54;;;;;;;3.93;3.37;;;;;;;;;;6190421;23;20196;-85
2022/04/19 06:49:23;;;;;;;7.10;5.60;;;;;;;;;;6216920;23;20249;-84
2022/04/19 06:51:51;;;;;;;7.13;5.60;;;;;;;;;;6190225;23;20179;-85
2022/04/19 06:54:20;;;;;;;2.03;2.00;;;;;;;;;;6190365;23;20178;-84
2022/04/19 06:56:48;;;;;;;2.73;1.60;;;;;;;;;;6190127;23;20175;-85
2022/04/19 06:59:17;;;;;;;2.93;2.07;;;;;;;;;;6190238;23;20202;-85
2022/04/19 07:01:47;;;;;;;1.20;1.20;;;;;;;;;;6190417;23;20187;-85
2022/04/19 07:04:16;;;;;;;4.63;3.80;;;;;;;;;;6190654;23;20179;-85
2022/04/19 07:06:44;;;;;;;4.63;4.23;;;;;;;;;;6216570;23;20193;-85
2022/04/19 07:09:13;;;;;;;2.33;2.13;;;;;;;;;;6190476;23;20202;-84
2022/04/19 07:11:41;;;;;;;2.30;2.20;;;;;;;;;;6190453;23;20177;-85
2022/04/19 07:14:10;;;;;;;6.10;4.40;;;;;;;;;;6215549;23;20199;-85
2022/04/19 07:16:42;;;;;;;5.83;4.60;;;;;;;;;;6190398;23;20180;-86
2022/04/19 07:19:13;;;;;;;1.97;1.47;;;;;;;;;;6190503;23;20276;-86
2022/04/19 07:27:33;;;;;;;0.60;0.60;;;;;;;;;;6190318;23;20208;-85
2022/04/19 07:30:04;;;;;;;3.17;2.87;;;;;;;;;;6191091;23;20181;-87
2022/04/19 07:32:34;;;;;;;9.43;5.90;;;;;;;;;;6190639;23;20178;-87
2022/04/19 07:35:04;;;;;;;5.97;3.70;;;;;;;;;;6216870;23;20234;-86
2022/04/19 07:37:33;;;;;;;3.03;2.87;;;;;;;;;;6190345;23;20232;-85
2022/04/19 07:40:02;;;;;;;10.37;5.10;;;;;;;;;;6191044;23;20177;-87
2022/04/19 07:42:34;;;;;;;2.63;2.43;;;;;;;;;;6190835;23;20182;-86
2022/04/19 07:45:06;;;;;;;2.83;2.63;;;;;;;;;;6189886;23;20177;-87
2022/04/19 07:47:41;;;;;;;3.63;3.37;;;;;;;;;;6190642;23;20196;-86
2022/04/19 07:50:24;;;;;;;5.60;3.77;;;;;;;;;;6190433;23;20177;-86
2022/04/19 07:53:03;;;;;;;0.40;0.40;;;;;;;;;;6190674;23;20173;-87
2022/04/19 07:55:39;;;;;;;6.27;3.67;;;;;;;;;;6190121;23;20265;-86
2022/04/19 07:58:15;;;;;;;3.00;2.00;;;;;;;;;;6190164;23;20224;-86
2022/04/19 08:01:10;;;;;;;3.03;2.67;;;;;;;;;;6189775;23;20264;-86
2022/04/19 08:03:47;;;;;;;3.43;2.57;;;;;;;;;;6190537;23;20265;-86
2022/04/19 08:06:23;;;;;;;6.47;4.40;;;;;;;;;;6190246;23;20224;-85
2022/04/19 08:09:03;;;;;;;3.20;2.83;;;;;;;;;;6188861;23;20182;-88
2022/04/19 08:11:36;;;;;;;2.80;2.60;;;;;;;;;;6189872;23;20174;-87
2022/04/19 08:14:11;;;;;;;5.80;4.60;;;;;;;;;;6189751;23;20201;-87
2022/04/19 08:16:46;;;;;;;2.17;2.07;;;;;;;;;;6189174;23;20174;-87
2022/04/19 08:19:23;;;;;;;10.40;3.17;;;;;;;;;;6190004;23;20189;-86
2022/04/19 08:21:58;;;;;;;2.90;1.70;;;;;;;;;;6190263;23;20213;-87
2022/04/19 08:24:36;;;;;;;2.00;1.90;;;;;;;;;;6189377;23;20214;-86
2022/04/19 08:27:06;;;;;;;6.67;4.00;;;;;;;;;;6189869;23;20206;-86
2022/04/19 08:29:38;;;;;;;5.77;3.67;;;;;;;;;;6189551;23;20183;-87
2022/04/19 08:32:08;;;;;;;4.07;3.17;;;;;;;;;;6189927;23;20314;-87
2022/04/19 08:35:07;;;;;;;6.40;3.37;;;;;;;;;;6188653;23;20194;-87
2022/04/19 08:37:42;;;;;;;5.47;3.50;;;;;;;;;;6190053;23;20240;-87
2022/04/19 08:40:16;;;;;;;3.83;2.80;;;;;;;;;;6189793;23;20174;-87
2022/04/19 08:42:49;;;;;;;4.77;3.23;;;;;;;;;;6190063;23;20202;-87
2022/04/19 08:45:21;;;;;;;4.27;3.27;;;;;;;;;;6189745;23;20174;-87
2022/04/19 08:47:53;;;;;;;4.10;3.23;;;;;;;;;;6189563;23;20204;-87
2022/04/19 08:50:28;;;;;;;4.57;3.50;;;;;;;;;;6190033;23;20186;-87
2022/04/19 08:58:43;;;;;;;4.53;2.87;;;;;;;;;;6189175;23;20237;-86
2022/04/19 09:01:18;;;;;;;0.60;0.60;;;;;;;;;;6189611;23;20185;-87
2022/04/19 09:03:55;;;;;;;4.30;2.90;;;;;;;;;;6189069;23;20226;-87
2022/04/19 09:06:51;;;;;;;5.43;2.53;;;;;;;;;;6189495;23;20284;-87
2022/04/19 09:09:26;;;;;;;3.03;2.33;;;;;;;;;;6189679;23;20174;-87
2022/04/19 09:12:13;;;;;;;3.77;3.17;;;;;;;;;;6189290;23;20177;-87
2022/04/19 09:15:00;;;;;;;6.73;3.47;;;;;;;;;;6189335;23;20174;-86
2022/04/19 09:17:45;;;;;;;6.20;4.07;;;;;;;;;;6188574;23;20175;-87
2022/04/19 09:20:18;;;;;;;5.80;3.50;;;;;;;;;;6189243;23;20178;-87
2022/04/19 09:23:03;;;;;;;5.07;3.63;;;;;;;;;;6189804;23;20179;-86
2022/04/19 09:25:37;;;;;;;7.60;4.67;;;;;;;;;;6189195;23;20175;-86
2022/04/19 09:28:20;;;;;;;5.93;3.80;;;;;;;;;;6189034;23;20212;-86
2022/04/19 09:30:51;;;;;;;7.60;4.43;;;;;;;;;;6189537;23;20181;-86
2022/04/19 09:33:21;;;;;;;6.10;4.13;;;;;;;;;;6189539;23;20192;-86
2022/04/19 09:35:56;;;;;;;7.43;4.57;;;;;;;;;;6189468;23;20174;-86
2022/04/19 09:38:42;;;;;;;10.27;5.37;;;;;;;;;;6188992;23;20179;-87
2022/04/19 09:41:42;;;;;;;;;;;;;;;;;;;;;
2022/04/19 09:44:14;;;;;;;6.97;3.60;;;;;;;;;;6189508;23;20177;-86
2022/04/19 09:47:02;;;;;;;7.13;3.87;;;;;;;;;;6189261;23;20174;-88
2022/04/19 09:49:53;;;;;;;7.77;4.10;;;;;;;;;;6189059;23;20175;-88
2022/04/19 09:52:43;;;;;;;5.83;3.90;;;;;;;;;;6188699;23;20175;-88
2022/04/19 09:55:30;;;;;;;5.10;3.93;;;;;;;;;;6188709;23;20177;-88
2022/04/19 09:58:07;;;;;;;6.00;3.67;;;;;;;;;;6189151;23;20170;-88
2022/04/19 10:00:45;;;;;;;5.83;4.20;;;;;;;;;;6189157;23;20178;-88
2022/04/19 10:09:12;;;;;;;1.13;1.13;;;;;;;;;;6190654;23;20185;-86
2022/04/19 10:12:05;;;;;;;9.20;5.67;;;;;;;;;;6190217;23;20202;-87
2022/04/19 10:15:08;;;;;;;5.07;3.40;;;;;;;;;;6194168;23;20174;-87
2022/04/19 10:18:00;;;;;;;6.17;4.90;;;;;;;;;;6192360;23;20184;-87
2022/04/19 10:20:59;;;;;;;4.73;3.23;;;;;;;;;;6188124;23;20206;-86
2022/04/19 10:24:05;;;;;;;3.23;2.50;;;;;;;;;;6188942;23;20180;-88
2022/04/19 10:26:48;;;;;;;2.33;2.13;;;;;;;;;;6189175;23;20219;-88
2022/04/19 10:29:35;;;;;;;4.40;3.27;;;;;;;;;;6164715;23;20195;-88
2022/04/19 10:32:17;;;;;;;2.87;2.60;;;;;;;;;;6189445;23;20190;-88
2022/04/19 10:35:00;;;;;;;6.30;4.00;;;;;;;;;;6189058;23;20174;-87
2022/04/19 10:37:36;;;;;;;5.17;3.17;;;;;;;;;;6189172;23;20174;-88
2022/04/19 10:40:23;;;;;;;3.20;2.60;;;;;;;;;;6189267;23;20179;-88
2022/04/19 10:43:13;;;;;;;5.27;2.60;;;;;;;;;;6189285;23;20178;-88
2022/04/19 10:45:51;;;;;;;4.67;3.77;;;;;;;;;;6214349;23;20202;-87
2022/04/19 10:48:26;;;;;;;7.33;5.43;;;;;;;;;;6185819;23;20193;-88
2022/04/19 10:51:28;;;;;;;6.33;4.30;;;;;;;;;;6189148;23;20174;-88
2022/04/19 10:54:17;;;;;;;7.13;4.43;;;;;;;;;;6188993;23;20179;-88
2022/04/19 10:57:11;;;;;;;8.37;5.47;;;;;;;;;;6189344;23;20271;-88
2022/04/19 10:59:42;;;;;;;7.27;5.67;;;;;;;;;;6188688;23;20261;-88
2022/04/19 11:02:27;;;;;;;4.30;3.33;;;;;;;;;;6189279;23;20178;-88
2022/04/19 11:05:05;;;;;;;7.20;4.40;;;;;;;;;;6187947;23;20178;-87
2022/04/19 11:07:43;;;;;;;7.00;3.27;;;;;;;;;;6189077;23;20194;-86
2022/04/19 11:10:44;;;;;;;4.07;3.63;;;;;;;;;;6189039;23;20200;-88
2022/04/19 11:13:14;;;;;;;4.13;3.17;;;;;;;;;;6188782;23;20195;-88
2022/04/19 11:16:02;;;;;;;8.17;5.23;;;;;;;;;;6188580;23;20205;-88
2022/04/19 11:18:32;;;;;;;6.23;3.43;;;;;;;;;;6189251;23;20181;-87
2022/04/19 11:21:52;;;;;;;7.67;4.17;;;;;;;;;;6140791;23;20174;-88
2022/04/19 11:24:48;;;;;;;4.80;2.73;;;;;;;;;;6189886;23;20244;-88
2022/04/19 11:27:37;;;;;;;3.03;2.73;;;;;;;;;;6191178;23;20238;-88
2022/04/19 11:30:16;;;;;;;6.40;4.13;;;;;;;;;;6190367;23;20178;-88
2022/04/19 11:32:52;;;;;;;7.07;4.37;;;;;;;;;;6190201;23;20238;-88
2022/04/19 11:35:33;;;;;;;5.93;4.23;;;;;;;;;;6189527;23;20184;-87
2022/04/19 11:38:13;;;;;;;7.47;4.63;;;;;;;;;;6190168;23;20221;-87
2022/04/19 11:46:46;;;;;;;17.17;3.90;;;;;;;;;;6190922;23;20203;-87
2022/04/19 11:49:29;;;;;;;6.10;3.37;;;;;;;;;;6191303;23;20194;-88
2022/04/19 11:52:11;;;;;;;5.20;3.93;;;;;;;;;;6191185;23;20179;-88
2022/04/19 11:54:57;;;;;;;6.77;3.23;;;;;;;;;;6191934;23;20207;-87
2022/04/19 11:57:26;;;;;;;5.00;3.23;;;;;;;;;;6216801;23;20185;-88
2022/04/19 12:00:00;;;;;;;3.50;2.83;;;;;;;;;;6191162;23;20201;-88
2022/04/19 12:02:29;;;;;;;8.70;3.80;;;;;;;;;;6190785;23;20212;-88
2022/04/19 12:05:03;;;;;;;2.97;2.63;;;;;;;;;;6191089;23;20178;-88
2022/04/19 12:07:32;;;;;;;6.77;4.63;;;;;;;;;;6191133;23;20183;-88
2022/04/19 12:10:09;;;;;;;6.47;3.90;;;;;;;;;;6190841;23;20260;-88
2022/04/19 12:12:41;;;;;;;5.87;3.10;;;;;;;;;;6191153;23;20225;-88
2022/04/19 12:15:35;;;;;;;6.33;4.27;;;;;;;;;;6190686;23;20180;-88
2022/04/19 12:18:07;;;;;;;3.93;2.63;;;;;;;;;;6190992;23;20171;-88
2022/04/19 12:20:43;;;;;;;4.40;3.33;;;;;;;;;;6190778;23;20216;-88
2022/04/19 12:23:19;;;;;;;2.50;1.70;;;;;;;;;;6191056;23;20181;-87
2022/04/19 12:26:00;;;;;;;2.40;2.07;;;;;;;;;;6190652;23;20179;-86
2022/04/19 12:28:49;;;;;;;4.27;3.07;;;;;;;;;;6190517;23;20289;-87
2022/04/19 12:31:31;;;;;;;6.07;3.67;;;;;;;;;;6216272;23;20259;-87
2022/04/19 12:34:06;;;;;;;5.07;2.90;;;;;;;;;;6190882;23;20182;-88
2022/04/19 12:36:46;;;;;;;4.13;3.20;;;;;;;;;;6187529;23;20175;-87
2022/04/19 12:39:16;;;;;;;7.07;4.43;;;;;;;;;;6189330;23;20221;-88
2022/04/19 12:41:54;;;;;;;4.53;3.57;;;;;;;;;;6190482;23;20184;-87
2022/04/19 12:44:34;;;;;;;9.97;3.97;;;;;;;;;;6190643;23;20257;-87
2022/04/19 12:47:16;;;;;;;3.20;2.17;;;;;;;;;;6189887;23;20175;-87
2022/04/19 12:49:59;;;;;;;4.70;3.60;;;;;;;;;;6190992;23;20192;-87
2022/04/19 12:52:32;;;;;;;9.73;5.80;;;;;;;;;;6189845;23;20258;-86
2022/04/19 12:55:09;;;;;;;6.50;4.90;;;;;;;;;;6190075;23;20180;-88
2022/04/19 13:54:29;;;;;;;8.73;5.73;;;;;;;;;;5846374;24;20198;-90
2022/04/19 14:12:16;;;;;;;;;;;;;;;;;;;;;
2022/04/19 14:15:35;;;;;;;7.13;3.43;;;;;;;;;;5887164;24;20191;-89
2022/04/19 14:19:23;;;;;;;6.17;4.07;;;;;;;;;;5925750;24;20183;-89
2022/04/19 14:22:36;;;;;;;3.87;2.67;;;;;;;;;;5907478;24;20186;-88
2022/04/19 14:28:14;;;;;;;5.10;4.07;;;;;;;;;;6066385;23;20452;-89
2022/04/19 14:33:36;;;;;;;5.87;3.00;;;;;;;;;;6043397;23;20235;-88
2022/04/19 14:36:08;;;;;;;7.30;3.07;;;;;;;;;;6043763;23;20183;-89
2022/04/19 14:38:48;;;;;;;6.17;5.03;;;;;;;;;;6125799;23;20171;-89
2022/04/19 14:41:39;;;;;;;3.43;3.07;;;;;;;;;;6185148;23;20230;-90
2022/04/19 14:44:37;;;;;;;1.37;1.27;;;;;;;;;;6184748;23;20177;-89
2022/04/19 14:47:39;;;;;;;5.57;3.30;;;;;;;;;;6186374;23;20267;-90
2022/04/19 14:53:11;;;;;;;5.07;3.83;;;;;;;;;;6186888;23;20186;-89
2022/04/19 14:56:07;;;;;;;3.37;3.07;;;;;;;;;;6187429;23;20177;-89
2022/04/19 14:58:53;;;;;;;2.03;1.83;;;;;;;;;;6186975;23;20219;-89
2022/04/19 15:01:48;;;;;;;3.10;2.47;;;;;;;;;;6159548;23;20203;-89
2022/04/19 15:04:38;;;;;;;2.27;2.07;;;;;;;;;;6186312;23;20175;-90
2022/04/19 15:07:31;;;;;;;2.13;1.67;;;;;;;;;;6161847;23;20263;-88
2022/04/19 15:10:35;;;;;;;2.87;2.57;;;;;;;;;;6161914;23;20218;-88
2022/04/19 15:13:43;;;;;;;3.77;2.70;;;;;;;;;;6161697;23;20176;-88
2022/04/19 15:24:03;;;;;;;2.20;1.80;;;;;;;;;;6177043;23;20182;-89
2022/04/19 15:26:54;;;;;;;3.47;2.40;;;;;;;;;;6160390;23;20184;-88
2022/04/19 15:29:37;;;;;;;2.10;1.90;;;;;;;;;;6185494;23;20298;-88
2022/04/19 15:32:08;;;;;;;3.27;2.87;;;;;;;;;;6211328;23;20207;-88
2022/04/19 15:34:37;;;;;;;2.27;1.90;;;;;;;;;;6191227;23;20175;-88
2022/04/19 15:37:06;;;;;;;2.73;2.53;;;;;;;;;;6191566;23;20171;-88
2022/04/19 15:39:36;;;;;;;1.03;1.03;;;;;;;;;;6191604;23;20255;-87
2022/04/19 15:42:05;;;;;;;1.57;1.30;;;;;;;;;;6191655;23;20177;-87
2022/04/19 15:44:34;;;;;;;1.83;1.40;;;;;;;;;;6191205;23;20186;-87
2022/04/19 15:47:04;;;;;;;2.97;2.57;;;;;;;;;;6191023;23;20178;-87
2022/04/19 15:49:33;;;;;;;2.97;2.50;;;;;;;;;;6191550;23;20283;-87
2022/04/19 15:52:01;;;;;;;4.27;2.17;;;;;;;;;;6190887;23;20175;-87
2022/04/19 15:54:30;;;;;;;4.40;2.53;;;;;;;;;;6190886;23;20185;-87
2022/04/19 15:56:58;;;;;;;5.23;2.57;;;;;;;;;;6191794;23;20207;-86
2022/04/19 15:59:28;;;;;;;2.93;2.40;;;;;;;;;;6191538;23;20175;-87
2022/04/19 16:01:56;;;;;;;4.83;2.77;;;;;;;;;;6190366;23;20183;-87
2022/04/19 16:04:26;;;;;;;2.57;2.27;;;;;;;;;;6217396;23;20184;-87
2022/04/19 16:06:55;;;;;;;1.53;1.43;;;;;;;;;;6190750;23;20203;-87
2022/04/19 16:09:23;;;;;;;1.93;1.67;;;;;;;;;;6217331;23;20191;-88
2022/04/19 16:11:51;;;;;;;2.53;1.00;;;;;;;;;;6190618;23;20182;-87
2022/04/19 16:14:20;;;;;;;1.17;0.97;;;;;;;;;;6191219;23;20185;-88
2022/04/19 16:25:08;;;;;;;4.97;1.53;;;;;;;;;;6191165;23;20181;-88
2022/04/19 16:27:36;;;;;;;2.30;2.10;;;;;;;;;;6190610;23;20185;-88
2022/04/19 16:30:11;;;;;;;2.63;2.07;;;;;;;;;;6190841;23;20195;-88
2022/04/19 16:32:40;;;;;;;2.23;1.73;;;;;;;;;;6190000;23;20313;-88
2022/04/19 16:35:11;;;;;;;4.13;2.67;;;;;;;;;;6190611;23;20265;-88
2022/04/19 16:37:39;;;;;;;0.50;0.50;;;;;;;;;;6190733;23;20201;-89
2022/04/19 16:40:08;;;;;;;2.53;2.20;;;;;;;;;;6216839;23;20190;-88
2022/04/19 16:42:37;;;;;;;2.07;1.87;;;;;;;;;;6190545;23;20693;-88
2022/04/19 16:45:06;;;;;;;1.53;1.43;;;;;;;;;;6216240;23;20197;-88
2022/04/19 16:47:35;;;;;;;1.53;1.43;;;;;;;;;;6190939;23;20170;-88
2022/04/19 16:50:03;;;;;;;2.43;1.37;;;;;;;;;;6190503;23;20191;-88
2022/04/19 16:52:33;;;;;;;4.10;3.00;;;;;;;;;;6190681;23;20186;-87
2022/04/19 16:55:01;;;;;;;1.53;1.43;;;;;;;;;;6216679;23;20208;-88
2022/04/19 16:57:31;;;;;;;2.20;2.03;;;;;;;;;;6190348;23;20175;-89
2022/04/19 16:59:59;;;;;;;1.27;1.17;;;;;;;;;;6190462;23;20174;-88
2022/04/19 17:02:29;;;;;;;2.73;2.03;;;;;;;;;;6190137;23;20178;-89
2022/04/19 17:04:57;;;;;;;1.70;1.60;;;;;;;;;;6190269;23;20268;-89
2022/04/19 17:07:26;;;;;;;1.97;1.57;;;;;;;;;;6190785;23;20181;-88
2022/04/19 17:09:56;;;;;;;5.10;1.33;;;;;;;;;;6216505;23;20183;-88
2022/04/19 17:12:25;;;;;;;0.87;0.87;;;;;;;;;;6191095;23;20175;-88
2022/04/19 17:14:54;;;;;;;2.17;1.77;;;;;;;;;;6191091;23;20187;-88
2022/04/19 17:17:22;;;;;;;3.10;2.17;;;;;;;;;;6215771;23;20222;-88
2022/04/19 17:19:51;;;;;;;1.20;1.17;;;;;;;;;;6215616;23;20222;-86
2022/04/19 17:22:20;;;;;;;2.40;2.20;;;;;;;;;;6216344;23;20175;-88
2022/04/19 17:24:49;;;;;;;3.27;2.27;;;;;;;;;;6189793;23;20178;-87
2022/04/19 17:27:19;;;;;;;1.30;1.10;;;;;;;;;;6190208;23;20188;-87
2022/04/19 17:29:47;;;;;;;4.07;1.90;;;;;;;;;;6216984;23;20179;-87
2022/04/19 17:32:16;;;;;;;3.07;2.47;;;;;;;;;;6185245;23;20290;-88
2022/04/19 17:34:44;;;;;;;4.00;1.20;;;;;;;;;;6184716;23;20176;-88
2022/04/19 17:37:13;;;;;;;5.87;1.03;;;;;;;;;;6185018;23;20181;-87
2022/04/19 17:39:41;;;;;;;0.83;0.83;;;;;;;;;;6186235;23;20171;-88
2022/04/19 17:42:09;;;;;;;5.50;1.60;;;;;;;;;;6185219;23;20177;-87
2022/04/19 17:44:40;;;;;;;0.83;0.83;;;;;;;;;;6185477;23;20180;-87
2022/04/19 17:47:08;;;;;;;1.10;1.10;;;;;;;;;;6186736;23;20243;-87